Time;durP1;ratioP1;P1;durP2;ratioP2;P2;SDS_P1;SDS_P2;PMS_P1;PMS_P2;Temp;Humidity;BMP_temperature;BMP_pressure;BME280_temperature;BME280_humidity;BME280_pressure;Samples;Min_cycle;Max_cycle;Signal;HPM_P1;HPM_P2
2024/01/13 00:00:08;;;;;;;53.78;34.95;;;-0.10;99.90;;;;;;4977867;28;20014;-77
2024/01/13 00:02:34;;;;;;;54.50;35.73;;;-0.10;99.90;;;;;;4977597;28;20035;-74
2024/01/13 00:05:00;;;;;;;53.88;33.63;;;-0.10;99.90;;;;;;4976476;28;20277;-75
2024/01/13 00:07:26;;;;;;;54.78;35.05;;;-0.10;99.90;;;;;;4964895;28;20034;-76
2024/01/13 00:09:52;;;;;;;58.05;34.40;;;-0.10;99.90;;;;;;4977825;28;20106;-75
2024/01/13 00:12:18;;;;;;;59.13;37.72;;;-0.10;99.90;;;;;;4977680;28;20062;-76
2024/01/13 00:14:43;;;;;;;58.92;34.55;;;-0.10;99.90;;;;;;4977636;28;20074;-76
2024/01/13 00:17:10;;;;;;;55.15;33.70;;;-0.10;99.90;;;;;;4977239;28;20387;-75
2024/01/13 00:19:36;;;;;;;61.65;35.83;;;-0.10;99.90;;;;;;4977503;28;20046;-75
2024/01/13 00:22:04;;;;;;;60.35;38.33;;;-0.10;99.90;;;;;;4977302;28;20478;-76
2024/01/13 00:24:30;;;;;;;54.45;34.88;;;-0.10;99.90;;;;;;4977396;28;20046;-75
2024/01/13 00:26:56;;;;;;;52.70;35.92;;;-0.10;99.90;;;;;;4977428;28;20074;-77
2024/01/13 00:29:21;;;;;;;56.25;34.63;;;0.00;99.90;;;;;;4977528;28;20478;-77
2024/01/13 00:31:47;;;;;;;51.05;32.65;;;-0.10;99.90;;;;;;4977226;28;20029;-75
2024/01/13 00:34:13;;;;;;;55.28;33.55;;;-0.10;99.90;;;;;;4959941;28;20429;-77
2024/01/13 00:36:39;;;;;;;53.95;33.70;;;-0.10;99.90;;;;;;4977089;28;20041;-75
2024/01/13 00:39:05;;;;;;;51.10;33.28;;;-0.10;99.90;;;;;;4977388;28;20081;-78
2024/01/13 00:41:31;;;;;;;55.28;33.38;;;-0.10;99.90;;;;;;4977090;28;20039;-77
2024/01/13 00:43:59;;;;;;;47.42;31.20;;;-0.10;99.90;;;;;;4977231;28;20041;-76
2024/01/13 00:46:26;;;;;;;50.60;30.63;;;-0.10;99.90;;;;;;4977103;28;20034;-76
2024/01/13 00:48:52;;;;;;;51.80;31.40;;;-0.20;99.90;;;;;;4977140;28;20133;-76
2024/01/13 00:51:18;;;;;;;53.95;33.58;;;-0.20;99.90;;;;;;4976783;28;20090;-76
2024/01/13 00:53:44;;;;;;;51.80;32.28;;;-0.20;99.90;;;;;;4977084;28;20022;-75
2024/01/13 00:56:10;;;;;;;49.50;31.98;;;-0.20;99.90;;;;;;4976793;28;20050;-76
2024/01/13 00:58:36;;;;;;;53.10;33.70;;;-0.20;99.90;;;;;;4977095;28;20089;-76
2024/01/13 01:01:03;;;;;;;51.40;31.90;;;-0.20;99.90;;;;;;4976476;28;20029;-76
2024/01/13 01:03:29;;;;;;;46.60;31.50;;;-0.20;99.90;;;;;;4976834;28;20516;-76
2024/01/13 01:05:55;;;;;;;50.15;30.85;;;-0.10;99.90;;;;;;4976591;28;20023;-76
2024/01/13 01:08:21;;;;;;;53.13;32.90;;;-0.10;99.90;;;;;;4976795;28;20046;-76
2024/01/13 01:10:47;;;;;;;50.55;30.23;;;-0.20;99.90;;;;;;4976577;28;20434;-76
2024/01/13 01:13:13;;;;;;;52.42;32.10;;;-0.10;99.90;;;;;;4976821;28;20363;-77
2024/01/13 01:15:39;;;;;;;49.92;32.42;;;-0.20;99.90;;;;;;4976522;28;20034;-78
2024/01/13 01:18:05;;;;;;;52.17;33.13;;;-0.10;99.90;;;;;;4976362;28;20035;-76
2024/01/13 01:20:31;;;;;;;49.65;31.88;;;-0.20;99.90;;;;;;4976023;28;20047;-78
2024/01/13 01:22:57;;;;;;;52.38;30.77;;;-0.20;99.90;;;;;;4976241;28;20035;-75
2024/01/13 01:25:23;;;;;;;50.47;31.20;;;-0.20;99.90;;;;;;4976077;28;20106;-74
2024/01/13 01:27:49;;;;;;;49.00;31.60;;;-0.20;99.90;;;;;;4976378;28;20030;-78
2024/01/13 01:30:14;;;;;;;56.10;32.67;;;-0.20;99.90;;;;;;4976031;28;20022;-77
2024/01/13 01:32:40;;;;;;;53.78;33.67;;;-0.20;99.90;;;;;;4976139;28;20066;-74
2024/01/13 01:35:06;;;;;;;58.30;34.05;;;-0.20;99.90;;;;;;4975909;28;20034;-74
2024/01/13 01:37:35;;;;;;;55.03;33.78;;;-0.20;99.90;;;;;;4976138;28;20027;-77
2024/01/13 01:40:01;;;;;;;57.85;34.28;;;-0.20;99.90;;;;;;4976034;28;20038;-77
2024/01/13 01:42:27;;;;;;;52.67;35.03;;;-0.30;99.90;;;;;;4976086;28;20054;-75
2024/01/13 01:44:53;;;;;;;57.20;35.95;;;-0.30;99.90;;;;;;4975841;28;20062;-74
2024/01/13 01:47:21;;;;;;;59.30;35.50;;;-0.30;99.90;;;;;;4975924;28;20034;-74
2024/01/13 01:49:48;;;;;;;54.17;34.22;;;-0.30;99.90;;;;;;4975648;28;20038;-75
2024/01/13 01:52:15;;;;;;;58.25;34.85;;;-0.40;99.90;;;;;;4975721;28;20432;-77
2024/01/13 01:54:42;;;;;;;57.78;35.03;;;-0.40;99.90;;;;;;4975559;28;20533;-77
2024/01/13 01:57:13;;;;;;;57.38;35.58;;;-0.40;99.90;;;;;;4975694;28;20037;-74
2024/01/13 01:59:39;;;;;;;55.72;36.65;;;-0.40;99.90;;;;;;4975645;28;20499;-74
2024/01/13 02:02:07;;;;;;;61.50;36.92;;;-0.40;99.90;;;;;;4975573;28;20085;-76
2024/01/13 02:04:33;;;;;;;60.90;36.65;;;-0.40;99.90;;;;;;4975565;28;20118;-76
2024/01/13 02:07:00;;;;;;;54.20;33.80;;;-0.40;99.90;;;;;;4975727;28;20165;-77
2024/01/13 02:09:27;;;;;;;61.67;35.00;;;-0.40;99.90;;;;;;4975424;28;20379;-75
2024/01/13 02:11:53;;;;;;;56.53;35.38;;;-0.40;99.90;;;;;;4974994;28;20042;-77
2024/01/13 02:14:19;;;;;;;53.95;33.70;;;-0.50;99.90;;;;;;4975223;28;20453;-76
2024/01/13 02:16:45;;;;;;;55.95;35.65;;;-0.50;99.90;;;;;;4975333;28;20111;-74
2024/01/13 02:19:11;;;;;;;61.47;36.25;;;-0.40;99.90;;;;;;4975132;28;20055;-75
2024/01/13 02:21:37;;;;;;;50.67;32.10;;;-0.50;99.90;;;;;;4975253;28;20049;-75
2024/01/13 02:24:03;;;;;;;52.58;34.25;;;-0.50;99.90;;;;;;4975091;28;20117;-76
2024/01/13 02:26:32;;;;;;;55.85;35.28;;;-0.40;99.90;;;;;;4975215;28;20023;-75
2024/01/13 02:28:58;;;;;;;53.42;34.10;;;-0.50;99.90;;;;;;4975167;28;20474;-75
2024/01/13 02:31:24;;;;;;;55.88;36.05;;;-0.50;99.90;;;;;;4975180;28;20030;-75
2024/01/13 02:33:51;;;;;;;54.65;35.15;;;-0.50;99.90;;;;;;4957250;28;20042;-75
2024/01/13 02:36:17;;;;;;;56.67;36.97;;;-0.50;99.90;;;;;;4975084;28;20034;-75
2024/01/13 02:38:43;;;;;;;55.67;35.58;;;-0.60;99.90;;;;;;4974629;28;20030;-75
2024/01/13 02:41:09;;;;;;;51.88;33.70;;;-0.60;99.90;;;;;;4975014;28;20081;-75
2024/01/13 02:43:36;;;;;;;55.55;34.78;;;-0.60;99.90;;;;;;4974864;28;20122;-76
2024/01/13 02:46:02;;;;;;;57.72;35.78;;;-0.60;99.90;;;;;;4975143;28;20015;-75
2024/01/13 02:48:34;;;;;;;53.53;35.25;;;-0.60;99.90;;;;;;4974267;28;20483;-76
2024/01/13 02:51:02;;;;;;;54.83;34.03;;;-0.70;99.90;;;;;;4957476;28;20086;-75
2024/01/13 02:53:28;;;;;;;55.60;35.25;;;-0.70;99.90;;;;;;4974632;28;20027;-75
2024/01/13 02:55:54;;;;;;;54.05;33.30;;;-0.70;99.90;;;;;;4974737;28;20050;-75
2024/01/13 02:58:20;;;;;;;54.25;34.60;;;-0.80;99.90;;;;;;4974631;28;20015;-75
2024/01/13 03:00:46;;;;;;;53.15;33.45;;;-0.80;99.90;;;;;;4975100;28;20101;-76
2024/01/13 03:03:12;;;;;;;55.47;33.85;;;-0.90;99.90;;;;;;4974444;28;20378;-74
2024/01/13 03:05:38;;;;;;;56.60;33.92;;;-0.90;99.90;;;;;;4974666;28;20038;-75
2024/01/13 03:08:04;;;;;;;49.05;33.38;;;-1.00;99.90;;;;;;4974594;28;20023;-76
2024/01/13 03:10:31;;;;;;;51.58;32.45;;;-1.10;99.90;;;;;;4974520;28;20058;-75
2024/01/13 03:12:57;;;;;;;52.13;32.38;;;-1.20;99.90;;;;;;4974804;28;20018;-75
2024/01/13 03:15:23;;;;;;;48.88;32.00;;;-1.20;99.90;;;;;;4974215;28;20062;-76
2024/01/13 03:17:49;;;;;;;49.63;32.15;;;-1.30;99.90;;;;;;4957193;28;20041;-76
2024/01/13 03:20:15;;;;;;;48.88;30.92;;;-1.40;99.90;;;;;;4974011;28;20051;-75
2024/01/13 03:22:41;;;;;;;51.25;32.55;;;-1.40;99.90;;;;;;4973739;28;20463;-75
2024/01/13 03:25:08;;;;;;;57.40;34.63;;;-1.40;99.90;;;;;;4973979;28;20042;-74
2024/01/13 03:27:33;;;;;;;53.45;33.55;;;-1.50;99.90;;;;;;4974283;28;20131;-75
2024/01/13 03:30:00;;;;;;;46.17;31.17;;;-1.50;99.90;;;;;;4974156;28;20109;-74
2024/01/13 03:32:25;;;;;;;51.80;32.53;;;-1.60;99.90;;;;;;4974053;28;20031;-75
2024/01/13 03:34:51;;;;;;;53.88;33.95;;;-1.60;99.90;;;;;;4974072;28;20035;-74
2024/01/13 03:37:17;;;;;;;55.45;34.72;;;-1.70;99.90;;;;;;4974346;28;20423;-75
2024/01/13 03:39:43;;;;;;;53.05;34.17;;;-1.70;99.90;;;;;;4974010;28;20077;-75
2024/01/13 03:42:09;;;;;;;51.72;33.13;;;-1.80;99.90;;;;;;4974261;28;20070;-74
2024/01/13 03:44:35;;;;;;;54.20;32.65;;;-1.80;99.90;;;;;;4974006;28;20035;-75
2024/01/13 03:47:01;;;;;;;53.83;34.75;;;-1.80;99.90;;;;;;4974107;28;20383;-76
2024/01/13 03:49:27;;;;;;;57.78;35.33;;;-1.80;99.90;;;;;;4972245;28;20038;-76
2024/01/13 03:51:52;;;;;;;56.10;32.85;;;-1.80;99.90;;;;;;4974158;28;20410;-76
2024/01/13 03:54:18;;;;;;;57.10;36.15;;;-1.80;99.90;;;;;;4973785;28;20475;-76
2024/01/13 03:56:44;;;;;;;61.50;37.13;;;-1.80;99.90;;;;;;4974007;28;20110;-75
2024/01/13 03:59:14;;;;;;;62.42;39.75;;;-1.80;99.90;;;;;;4973947;28;20026;-76
2024/01/13 04:01:41;;;;;;;60.53;38.15;;;-1.80;99.90;;;;;;4973969;28;20031;-76
2024/01/13 04:04:07;;;;;;;66.75;41.30;;;-1.80;99.90;;;;;;4973676;28;20147;-76
2024/01/13 04:06:32;;;;;;;56.03;36.40;;;-1.70;99.90;;;;;;4974090;28;20479;-76
2024/01/13 04:08:58;;;;;;;62.72;37.90;;;-1.70;99.90;;;;;;4973753;28;20182;-76
2024/01/13 04:11:24;;;;;;;63.60;38.50;;;-1.70;99.90;;;;;;4974210;28;20019;-76
2024/01/13 04:13:50;;;;;;;62.20;38.25;;;-1.70;99.90;;;;;;4972334;28;20390;-76
2024/01/13 04:16:16;;;;;;;62.05;38.00;;;-1.70;99.90;;;;;;4974044;28;20023;-76
2024/01/13 04:18:42;;;;;;;59.88;36.35;;;-1.60;99.90;;;;;;4973107;28;20059;-76
2024/01/13 04:21:08;;;;;;;58.83;35.35;;;-1.70;99.90;;;;;;4973876;28;20027;-75
2024/01/13 04:23:34;;;;;;;60.63;37.35;;;-1.60;99.90;;;;;;4955700;28;20047;-76
2024/01/13 04:26:00;;;;;;;62.25;36.22;;;-1.60;99.90;;;;;;4973079;28;20046;-76
2024/01/13 04:28:26;;;;;;;58.35;35.60;;;-1.60;99.90;;;;;;4972314;28;20506;-76
2024/01/13 04:30:52;;;;;;;55.92;36.95;;;-1.60;99.90;;;;;;4973819;28;20027;-76
2024/01/13 04:33:18;;;;;;;52.63;35.88;;;-1.50;99.90;;;;;;4973013;28;20502;-76
2024/01/13 04:35:44;;;;;;;54.05;33.50;;;-1.50;99.90;;;;;;4964426;28;20027;-76
2024/01/13 04:38:09;;;;;;;58.80;34.67;;;-1.50;99.90;;;;;;4977079;28;20483;-77
2024/01/13 04:40:37;;;;;;;53.60;34.33;;;-1.40;99.90;;;;;;4977049;28;20035;-76
2024/01/13 04:43:05;;;;;;;57.33;34.97;;;-1.40;99.90;;;;;;4975517;28;20077;-76
2024/01/13 04:45:31;;;;;;;62.65;38.83;;;-1.40;99.90;;;;;;4981628;28;20093;-76
2024/01/13 04:47:58;;;;;;;55.67;37.22;;;-1.40;99.90;;;;;;4974998;28;20027;-76
2024/01/13 04:50:24;;;;;;;66.78;40.55;;;-1.50;99.90;;;;;;4976857;28;20029;-76
2024/01/13 04:52:50;;;;;;;70.88;42.05;;;-1.40;99.90;;;;;;4976578;28;20399;-77
2024/01/13 04:55:16;;;;;;;67.20;40.88;;;-1.40;99.90;;;;;;4977018;28;20030;-77
2024/01/13 04:57:42;;;;;;;60.67;37.05;;;-1.40;99.90;;;;;;4958580;28;20395;-76
2024/01/13 05:00:08;;;;;;;61.88;38.53;;;-1.30;99.90;;;;;;4979942;28;20103;-75
2024/01/13 05:02:33;;;;;;;58.22;39.08;;;-1.30;99.90;;;;;;4980457;28;20027;-77
2024/01/13 05:04:59;;;;;;;61.05;38.50;;;-1.20;99.90;;;;;;4980444;28;20139;-76
2024/01/13 05:07:25;;;;;;;61.30;37.08;;;-1.30;99.90;;;;;;4957449;28;20460;-75
2024/01/13 05:09:51;;;;;;;55.38;35.70;;;-1.20;99.90;;;;;;4966581;28;20038;-75
2024/01/13 05:12:17;;;;;;;59.20;38.50;;;-1.20;99.90;;;;;;4974899;28;20429;-75
2024/01/13 05:14:44;;;;;;;55.15;35.45;;;-1.20;99.90;;;;;;4976634;28;20026;-75
2024/01/13 05:17:10;;;;;;;55.95;34.97;;;-1.20;99.90;;;;;;4976228;28;20506;-75
2024/01/13 05:19:35;;;;;;;58.30;37.45;;;-1.20;99.90;;;;;;4976048;28;20058;-75
2024/01/13 05:22:01;;;;;;;54.95;35.95;;;-1.30;99.90;;;;;;4976635;28;20038;-74
2024/01/13 05:24:27;;;;;;;58.28;35.25;;;-1.20;99.90;;;;;;4958902;28;20042;-75
2024/01/13 05:26:54;;;;;;;55.65;34.40;;;-1.20;99.90;;;;;;4975006;28;20387;-75
2024/01/13 05:29:20;;;;;;;56.75;34.42;;;-1.20;99.90;;;;;;4976617;28;20114;-76
2024/01/13 05:31:49;;;;;;;55.53;34.75;;;-1.20;99.90;;;;;;4962193;28;20107;-75
2024/01/13 05:34:15;;;;;;;55.25;34.45;;;-1.10;99.90;;;;;;4956144;28;20106;-75
2024/01/13 05:36:40;;;;;;;48.15;31.67;;;-1.10;99.90;;;;;;4963282;28;20490;-75
2024/01/13 05:39:06;;;;;;;47.50;29.67;;;-1.10;99.90;;;;;;4976018;28;20113;-76
2024/01/13 05:41:32;;;;;;;52.97;29.13;;;-1.10;99.90;;;;;;4958912;28;20026;-76
2024/01/13 05:43:58;;;;;;;46.13;28.13;;;-1.10;99.90;;;;;;4975579;28;20042;-75
2024/01/13 05:46:24;;;;;;;47.85;30.02;;;-1.00;99.90;;;;;;4975534;28;20019;-76
2024/01/13 05:48:51;;;;;;;50.25;31.55;;;-1.00;99.90;;;;;;4975705;28;20034;-75
2024/01/13 05:51:17;;;;;;;49.72;30.67;;;-1.00;99.90;;;;;;4973941;28;20050;-75
2024/01/13 05:53:44;;;;;;;49.38;31.25;;;-1.00;99.90;;;;;;4975718;28;20058;-77
2024/01/13 05:56:12;;;;;;;52.30;31.70;;;-0.90;99.90;;;;;;4975899;28;20031;-77
2024/01/13 05:58:41;;;;;;;50.50;31.63;;;-0.90;99.90;;;;;;4958599;28;20030;-77
2024/01/13 06:01:06;;;;;;;48.97;30.95;;;-0.90;99.90;;;;;;4975939;28;20098;-76
2024/01/13 06:03:32;;;;;;;48.90;30.80;;;-0.90;99.90;;;;;;4975343;28;20593;-77
2024/01/13 06:05:58;;;;;;;48.38;29.33;;;-0.80;99.90;;;;;;4962104;28;20423;-76
2024/01/13 06:08:24;;;;;;;46.70;28.75;;;-0.80;99.90;;;;;;4975675;28;20438;-77
2024/01/13 06:10:50;;;;;;;47.58;29.50;;;-0.80;99.90;;;;;;4975154;28;20062;-77
2024/01/13 06:13:16;;;;;;;50.83;28.27;;;-0.80;99.90;;;;;;4975766;28;20019;-78
2024/01/13 06:15:42;;;;;;;43.08;26.77;;;-0.80;99.90;;;;;;4975231;28;20463;-77
2024/01/13 06:18:08;;;;;;;42.97;27.60;;;-0.80;99.90;;;;;;4975520;28;20022;-77
2024/01/13 06:20:34;;;;;;;44.80;26.23;;;-0.70;99.90;;;;;;4974997;28;20140;-77
2024/01/13 06:23:00;;;;;;;49.10;28.75;;;-0.70;99.90;;;;;;4975127;28;20045;-77
2024/01/13 06:25:26;;;;;;;45.97;26.98;;;-0.70;99.90;;;;;;4973596;28;20050;-77
2024/01/13 06:27:52;;;;;;;43.97;26.20;;;-0.70;99.90;;;;;;4958123;28;20050;-76
2024/01/13 06:30:18;;;;;;;50.20;28.40;;;-0.60;99.90;;;;;;4973214;28;20029;-77
2024/01/13 06:32:44;;;;;;;43.75;27.20;;;-0.60;99.90;;;;;;4963643;28;20031;-77
2024/01/13 06:35:09;;;;;;;44.88;26.25;;;-0.60;99.90;;;;;;4973677;28;20034;-77
2024/01/13 06:37:35;;;;;;;44.15;27.95;;;-0.60;99.90;;;;;;4959024;28;20035;-78
2024/01/13 06:40:02;;;;;;;45.78;27.90;;;-0.50;99.90;;;;;;4955480;28;20450;-76
2024/01/13 06:42:28;;;;;;;45.47;28.30;;;-0.50;99.90;;;;;;4957841;28;20039;-76
2024/01/13 06:44:54;;;;;;;48.15;27.95;;;-0.50;99.90;;;;;;4970974;28;20031;-76
2024/01/13 06:47:21;;;;;;;46.28;27.10;;;-0.50;99.90;;;;;;4956474;28;20443;-77
2024/01/13 06:49:46;;;;;;;46.20;28.35;;;-0.40;99.90;;;;;;4961724;28;20100;-77
2024/01/13 06:52:14;;;;;;;39.45;23.58;;;-0.50;99.90;;;;;;4974647;28;20470;-78
2024/01/13 06:54:41;;;;;;;38.20;24.23;;;-0.50;99.90;;;;;;4970581;28;20066;-77
2024/01/13 06:57:06;;;;;;;38.03;22.98;;;-0.40;99.90;;;;;;4962695;28;20039;-78
2024/01/13 06:59:33;;;;;;;38.83;24.58;;;-0.40;99.90;;;;;;4972898;28;20011;-77
2024/01/13 07:01:59;;;;;;;41.28;23.73;;;-0.30;99.90;;;;;;4977737;28;20029;-76
2024/01/13 07:04:27;;;;;;;39.60;24.73;;;-0.20;99.90;;;;;;4975118;28;20035;-77
2024/01/13 07:06:53;;;;;;;40.42;23.70;;;-0.20;99.90;;;;;;4964464;28;20035;-77
2024/01/13 07:09:19;;;;;;;42.55;24.00;;;-0.20;99.90;;;;;;4955005;28;20031;-77
2024/01/13 07:11:48;;;;;;;40.67;23.55;;;-0.10;99.90;;;;;;4955108;28;20118;-76
2024/01/13 07:14:15;;;;;;;37.83;23.02;;;-0.20;99.90;;;;;;4954918;28;20027;-77
2024/01/13 07:16:41;;;;;;;39.50;23.88;;;-0.20;99.90;;;;;;4965595;28;20055;-77
2024/01/13 07:19:07;;;;;;;36.78;21.70;;;-0.10;99.90;;;;;;4961041;28;20105;-77
2024/01/13 07:21:33;;;;;;;42.97;24.23;;;-0.10;99.90;;;;;;4969389;28;20035;-77
2024/01/13 07:23:59;;;;;;;41.42;24.52;;;0.00;99.90;;;;;;4954802;28;20479;-77
2024/01/13 07:26:25;;;;;;;36.50;22.95;;;0.00;99.90;;;;;;4968719;28;20074;-77
2024/01/13 07:28:51;;;;;;;39.92;23.52;;;0.00;99.90;;;;;;4969471;28;20027;-77
2024/01/13 07:31:17;;;;;;;39.30;24.85;;;0.10;99.90;;;;;;4959037;28;20015;-77
2024/01/13 07:33:43;;;;;;;47.95;27.45;;;0.00;99.90;;;;;;4953510;28;20082;-78
2024/01/13 07:36:09;;;;;;;45.75;27.13;;;0.10;99.90;;;;;;4961397;28;20019;-77
2024/01/13 07:38:35;;;;;;;50.08;29.83;;;0.20;99.90;;;;;;4954879;28;20082;-78
2024/01/13 07:41:01;;;;;;;40.63;26.73;;;0.20;99.90;;;;;;4961589;28;20143;-77
2024/01/13 07:43:27;;;;;;;45.97;27.02;;;0.30;99.90;;;;;;4970834;28;20035;-78
2024/01/13 07:45:53;;;;;;;42.20;27.05;;;0.20;99.90;;;;;;4961200;28;20024;-78
2024/01/13 07:48:19;;;;;;;42.83;26.77;;;0.30;99.90;;;;;;4956848;28;20027;-79
2024/01/13 07:50:44;;;;;;;40.03;24.98;;;0.40;99.90;;;;;;4954761;28;20530;-77
2024/01/13 07:53:10;;;;;;;40.85;24.77;;;0.40;99.90;;;;;;4957131;28;20023;-77
2024/01/13 07:55:36;;;;;;;44.03;27.00;;;0.40;99.90;;;;;;4962860;28;20027;-79
2024/01/13 07:58:02;;;;;;;44.72;28.63;;;0.50;99.90;;;;;;4966180;28;20027;-79
2024/01/13 08:00:28;;;;;;;48.88;28.98;;;0.50;99.90;;;;;;4958549;28;20027;-78
2024/01/13 08:02:54;;;;;;;45.10;27.52;;;0.50;99.90;;;;;;4957688;28;20034;-78
2024/01/13 08:05:20;;;;;;;51.70;29.10;;;0.60;99.90;;;;;;4969106;28;20031;-79
2024/01/13 08:07:46;;;;;;;48.00;29.73;;;0.60;99.90;;;;;;4972198;28;20022;-78
2024/01/13 08:10:12;;;;;;;49.95;31.08;;;0.60;99.90;;;;;;4980217;28;20039;-79
2024/01/13 08:12:37;;;;;;;44.08;28.63;;;0.70;99.90;;;;;;4977486;28;20026;-79
2024/01/13 08:15:04;;;;;;;41.20;26.60;;;0.80;99.90;;;;;;4979364;28;20034;-79
2024/01/13 08:17:30;;;;;;;43.72;26.67;;;0.90;99.90;;;;;;4973694;28;20106;-78
2024/01/13 08:19:56;;;;;;;39.25;24.50;;;0.80;99.90;;;;;;4967686;28;20090;-79
2024/01/13 08:22:22;;;;;;;40.05;25.85;;;0.90;99.90;;;;;;4973894;28;20070;-79
2024/01/13 08:24:48;;;;;;;43.42;26.40;;;0.90;99.90;;;;;;4957424;28;20046;-78
2024/01/13 08:27:13;;;;;;;42.45;27.48;;;0.90;99.90;;;;;;4953383;29;20055;-78
2024/01/13 08:29:39;;;;;;;42.83;27.98;;;1.00;99.90;;;;;;4957983;28;20479;-81
2024/01/13 08:32:05;;;;;;;45.53;25.20;;;0.90;99.90;;;;;;4976225;28;20019;-78
2024/01/13 08:34:31;;;;;;;41.45;26.02;;;1.00;99.90;;;;;;4980943;28;20034;-80
2024/01/13 08:36:57;;;;;;;42.90;26.60;;;1.00;99.90;;;;;;4972562;28;20026;-80
2024/01/13 08:39:23;;;;;;;43.10;25.52;;;1.10;99.90;;;;;;4963447;28;20118;-79
2024/01/13 08:41:49;;;;;;;42.92;26.25;;;1.00;99.90;;;;;;4977031;28;20041;-80
2024/01/13 08:44:15;;;;;;;40.90;26.48;;;1.10;99.90;;;;;;4976619;28;20047;-79
2024/01/13 08:46:41;;;;;;;44.22;24.92;;;1.20;99.90;;;;;;4976455;28;20018;-79
2024/01/13 08:49:08;;;;;;;47.65;29.48;;;1.20;99.90;;;;;;4969349;28;20031;-79
2024/01/13 08:51:34;;;;;;;54.92;34.83;;;1.20;99.90;;;;;;4974380;28;20054;-77
2024/01/13 08:54:00;;;;;;;51.83;31.02;;;1.30;99.90;;;;;;4976641;28;20394;-79
2024/01/13 08:56:26;;;;;;;45.25;28.08;;;1.40;99.90;;;;;;4976886;28;20027;-77
2024/01/13 08:58:52;;;;;;;47.08;28.10;;;1.30;99.90;;;;;;4976444;28;20109;-79
2024/01/13 09:01:18;;;;;;;40.45;26.90;;;1.40;99.90;;;;;;4975022;28;20058;-78
2024/01/13 09:03:46;;;;;;;57.22;30.45;;;1.40;99.90;;;;;;4976807;28;20541;-79
2024/01/13 09:06:12;;;;;;;49.63;28.90;;;1.50;99.90;;;;;;4971916;28;20051;-79
2024/01/13 09:08:38;;;;;;;44.35;28.73;;;1.50;99.90;;;;;;4951061;28;20105;-79
2024/01/13 09:11:05;;;;;;;50.45;32.47;;;1.70;99.90;;;;;;4986232;28;20054;-80
2024/01/13 09:13:31;;;;;;;49.40;31.08;;;1.70;99.90;;;;;;4960985;28;20114;-79
2024/01/13 09:15:58;;;;;;;52.47;31.42;;;1.80;99.90;;;;;;4967283;28;20178;-79
2024/01/13 09:18:25;;;;;;;52.17;33.40;;;1.70;99.90;;;;;;4959376;28;20032;-79
2024/01/13 09:20:51;;;;;;;47.65;29.08;;;1.90;99.90;;;;;;4957879;28;20034;-79
2024/01/13 09:23:17;;;;;;;39.95;25.30;;;1.80;99.90;;;;;;4957406;28;20046;-78
2024/01/13 09:25:43;;;;;;;42.42;25.45;;;1.90;99.90;;;;;;4951110;28;20379;-81
2024/01/13 09:28:09;;;;;;;39.60;25.20;;;2.00;99.90;;;;;;4963349;28;20026;-78
2024/01/13 09:30:36;;;;;;;37.78;24.17;;;2.20;99.90;;;;;;4975526;28;20023;-78
2024/01/13 09:33:04;;;;;;;40.22;23.77;;;2.30;99.90;;;;;;4958573;28;20471;-79
2024/01/13 09:35:31;;;;;;;38.70;21.88;;;2.20;99.90;;;;;;4966457;28;20028;-79
2024/01/13 09:38:00;;;;;;;34.15;20.95;;;2.10;99.90;;;;;;4969341;28;20471;-79
2024/01/13 09:40:26;;;;;;;33.22;20.45;;;2.30;99.90;;;;;;4973765;28;20031;-79
2024/01/13 09:43:10;;;;;;;33.05;20.48;;;2.10;99.90;;;;;;4957553;28;20019;-80
2024/01/13 09:45:38;;;;;;;38.30;20.40;;;2.20;99.90;;;;;;4956588;28;20028;-80
2024/01/13 09:48:07;;;;;;;34.72;19.48;;;2.10;99.90;;;;;;4956457;28;20094;-79
2024/01/13 09:50:35;;;;;;;31.90;18.75;;;2.20;99.90;;;;;;4959291;28;20023;-80
2024/01/13 09:53:07;;;;;;;30.85;18.38;;;2.30;99.90;;;;;;4956493;28;20120;-79
2024/01/13 09:55:35;;;;;;;34.55;19.33;;;2.50;99.90;;;;;;4956121;28;20042;-77
2024/01/13 09:58:01;;;;;;;30.75;18.63;;;2.40;99.90;;;;;;4956307;28;20075;-77
2024/01/13 10:00:30;;;;;;;31.17;18.55;;;2.50;99.90;;;;;;4957157;28;20050;-78
2024/01/13 10:02:57;;;;;;;31.92;18.08;;;2.50;99.90;;;;;;4956401;28;20039;-77
2024/01/13 10:05:24;;;;;;;31.70;19.27;;;2.60;99.90;;;;;;4966742;28;20109;-76
2024/01/13 10:07:53;;;;;;;33.42;20.02;;;2.50;99.90;;;;;;4974234;28;20022;-78
2024/01/13 10:10:19;;;;;;;31.38;19.17;;;2.60;99.90;;;;;;4975377;28;20031;-77
2024/01/13 10:12:45;;;;;;;30.73;18.80;;;2.70;99.90;;;;;;4964500;28;20498;-77
2024/01/13 10:15:15;;;;;;;31.42;19.85;;;2.70;99.90;;;;;;4968116;28;20058;-78
2024/01/13 10:17:41;;;;;;;35.97;18.30;;;2.80;99.90;;;;;;4970858;28;20398;-77
2024/01/13 10:20:15;;;;;;;30.73;18.83;;;2.90;99.90;;;;;;4974897;28;20070;-78
2024/01/13 10:22:42;;;;;;;30.58;19.27;;;2.90;99.90;;;;;;4967099;28;20379;-75
2024/01/13 10:25:08;;;;;;;30.40;18.20;;;2.90;99.90;;;;;;4974947;28;20037;-75
2024/01/13 10:27:38;;;;;;;32.78;17.48;;;3.00;99.90;;;;;;4970717;28;20031;-76
2024/01/13 10:30:07;;;;;;;33.33;18.73;;;3.10;99.90;;;;;;4965934;28;20034;-78
2024/01/13 10:32:34;;;;;;;28.50;17.70;;;3.10;99.90;;;;;;4966102;28;20026;-77
2024/01/13 10:34:59;;;;;;;36.40;19.83;;;3.20;99.90;;;;;;4957551;28;20023;-75
2024/01/13 10:37:26;;;;;;;28.63;17.30;;;3.30;99.90;;;;;;4954607;28;20387;-79
2024/01/13 10:39:52;;;;;;;29.30;16.58;;;3.20;99.90;;;;;;4971591;28;20023;-79
2024/01/13 10:42:27;;;;;;;29.27;17.05;;;3.30;99.90;;;;;;4965475;28;20371;-79
2024/01/13 10:45:00;;;;;;;48.95;20.98;;;3.50;99.90;;;;;;4968523;28;20113;-79
2024/01/13 10:47:31;;;;;;;;;;;3.50;99.90;;;;;;4948556;28;20435;-78
2024/01/13 10:49:58;;;;;;;35.75;20.90;;;3.80;99.90;;;;;;4959184;28;19921;-80
2024/01/13 10:52:50;;;;;;;36.15;21.83;;;3.70;99.90;;;;;;4954497;28;20046;-78
2024/01/13 10:55:16;;;;;;;31.60;19.40;;;3.60;99.90;;;;;;4855742;29;20045;-77
2024/01/13 10:57:45;;;;;;;29.75;18.50;;;3.70;99.90;;;;;;4843126;29;20049;-77
2024/01/13 11:00:13;;;;;;;41.72;19.77;;;3.80;99.90;;;;;;4848936;29;20686;-77
2024/01/13 11:02:42;;;;;;;30.63;18.52;;;3.70;99.90;;;;;;4853299;29;20058;-78
2024/01/13 11:05:10;;;;;;;32.67;17.48;;;3.80;99.90;;;;;;4858695;29;20195;-78
2024/01/13 11:07:37;;;;;;;34.85;18.60;;;3.60;99.90;;;;;;4857701;29;20124;-77
2024/01/13 11:10:09;;;;;;;30.98;17.98;;;3.80;99.90;;;;;;4842428;29;20390;-75
2024/01/13 11:12:48;;;;;;;29.60;16.57;;;3.80;99.70;;;;;;4856456;29;20045;-77
2024/01/13 11:15:31;;;;;;;29.20;17.17;;;3.70;99.90;;;;;;4854499;29;20086;-78
2024/01/13 11:18:02;;;;;;;26.88;15.73;;;3.70;99.80;;;;;;4857917;29;20124;-78
2024/01/13 11:20:28;;;;;;;30.50;15.73;;;3.80;99.40;;;;;;4858674;29;20081;-77
2024/01/13 11:22:58;;;;;;;26.25;15.02;;;3.80;98.90;;;;;;4852082;29;20070;-77
2024/01/13 11:25:28;;;;;;;27.52;15.60;;;3.80;98.70;;;;;;4853080;29;20041;-74
2024/01/13 11:27:59;;;;;;;27.40;15.38;;;3.80;99.00;;;;;;4843264;29;20486;-75
2024/01/13 11:30:39;;;;;;;30.50;16.70;;;3.80;99.10;;;;;;4859565;29;20045;-76
2024/01/13 11:33:18;;;;;;;29.10;15.98;;;3.90;99.30;;;;;;4934608;28;20035;-74
2024/01/13 11:35:48;;;;;;;25.65;15.45;;;4.00;99.10;;;;;;4956113;28;20560;-74
2024/01/13 11:38:14;;;;;;;26.42;16.08;;;3.90;98.70;;;;;;4964297;28;20019;-77
2024/01/13 11:40:48;;;;;;;26.45;16.65;;;3.90;98.10;;;;;;4945719;28;20094;-75
2024/01/13 11:43:26;;;;;;;27.38;16.02;;;4.00;98.00;;;;;;4969347;28;20042;-77
2024/01/13 11:45:59;;;;;;;28.92;15.05;;;4.10;98.50;;;;;;4940567;28;20125;-74
2024/01/13 11:48:46;;;;;;;24.38;13.90;;;4.20;97.80;;;;;;4968201;28;20117;-73
2024/01/13 11:51:18;;;;;;;25.92;15.35;;;4.10;98.10;;;;;;4948386;28;20023;-74
2024/01/13 11:53:45;;;;;;;23.35;13.63;;;4.10;97.00;;;;;;4964087;28;20027;-74
2024/01/13 11:56:13;;;;;;;20.67;12.50;;;4.00;97.00;;;;;;4977701;28;20493;-73
2024/01/13 11:58:40;;;;;;;28.33;16.17;;;4.00;96.70;;;;;;4974907;28;20031;-75
2024/01/13 12:01:08;;;;;;;43.83;22.75;;;3.90;96.90;;;;;;4967673;28;20102;-74
2024/01/13 12:03:34;;;;;;;36.00;21.67;;;4.00;96.90;;;;;;4975830;28;20121;-76
2024/01/13 12:06:03;;;;;;;27.75;15.35;;;4.00;97.10;;;;;;4977457;28;20037;-77
2024/01/13 12:08:31;;;;;;;25.80;14.98;;;3.70;96.80;;;;;;4958924;28;20031;-74
2024/01/13 12:10:57;;;;;;;26.67;14.75;;;3.80;96.80;;;;;;4967506;28;20028;-73
2024/01/13 12:13:23;;;;;;;26.70;14.48;;;3.70;96.10;;;;;;4964931;28;20034;-74
2024/01/13 12:15:49;;;;;;;23.05;13.82;;;3.70;95.90;;;;;;4966645;28;20039;-74
2024/01/13 12:18:26;;;;;;;25.40;16.25;;;3.80;96.20;;;;;;4975060;28;20074;-75
2024/01/13 12:21:00;;;;;;;25.55;14.88;;;3.90;96.50;;;;;;4959755;28;20038;-74
2024/01/13 12:23:28;;;;;;;26.42;15.60;;;4.00;95.70;;;;;;4971954;28;20039;-75
2024/01/13 12:25:57;;;;;;;25.15;15.15;;;3.90;95.40;;;;;;4959616;28;20027;-75
2024/01/13 12:28:23;;;;;;;27.30;15.85;;;4.00;95.60;;;;;;4977125;28;20039;-74